Time;durP1;ratioP1;P1;durP2;ratioP2;P2;SDS_P1;SDS_P2;PMS_P1;PMS_P2;Temp;Humidity;BMP_temperature;BMP_pressure;BME280_temperature;BME280_humidity;BME280_pressure;Samples;Min_cycle;Max_cycle;Signal;HPM_P1;HPM_P2
2022/03/26 00:09:03;;;;;;;5.23;3.27;;;;;;;;;;20972028;28;20273;-67
2022/03/26 00:19:05;;;;;;;4.03;2.93;;;;;;;;;;20964928;28;20689;-66
2022/03/26 00:29:08;;;;;;;5.80;3.53;;;;;;;;;;21006686;28;20610;-66
2022/03/26 00:39:12;;;;;;;6.13;2.87;;;12.40;99.90;;;;;;21012861;28;20751;-67
2022/03/26 00:49:15;;;;;;;8.37;3.17;;;12.50;99.90;;;;;;21020227;28;20305;-67
2022/03/26 00:59:17;;;;;;;5.97;2.87;;;;;;;;;;21019199;28;20236;-67
2022/03/26 01:09:19;;;;;;;6.20;3.23;;;;;;;;;;20968995;28;20579;-67
2022/03/26 01:19:20;;;;;;;4.87;2.87;;;;;;;;;;20969180;28;20205;-67
2022/03/26 01:29:22;;;;;;;3.47;2.47;;;;;;;;;;20965222;28;20213;-67
2022/03/26 01:39:24;;;;;;;5.70;3.17;;;;;;;;;;20979379;28;20213;-67
2022/03/26 01:49:26;;;;;;;4.63;2.87;;;11.80;99.90;;;;;;21044571;28;20212;-67
2022/03/26 01:59:28;;;;;;;5.63;2.83;;;;;;;;;;21081244;28;20208;-67
2022/03/26 02:09:35;;;;;;;5.17;2.70;;;;;;;;;;21063680;28;20228;-67
2022/03/26 02:19:37;;;;;;;6.30;3.00;;;;;;;;;;21063792;28;20269;-67
2022/03/26 02:29:39;;;;;;;7.20;3.37;;;;;;;;;;21045950;28;20216;-67
2022/03/26 02:39:41;;;;;;;5.20;2.97;;;;;;;;;;21044550;28;20253;-67
2022/03/26 02:49:43;;;;;;;5.07;3.03;;;;;;;;;;21044033;28;20285;-67
2022/03/26 02:59:45;;;;;;;5.83;3.07;;;;;;;;;;21026485;28;20204;-67
2022/03/26 03:09:46;;;;;;;6.20;3.33;;;;;;;;;;21058678;28;20220;-67
2022/03/26 03:19:48;;;;;;;5.37;3.57;;;;;;;;;;21025104;28;20200;-66
2022/03/26 03:29:50;;;;;;;8.37;3.47;;;;;;;;;;21040770;28;20301;-66
2022/03/26 03:39:52;;;;;;;6.40;3.67;;;;;;;;;;21056412;28;20212;-67
2022/03/26 03:49:54;;;;;;;8.03;3.53;;;;;;;;;;21022476;28;20266;-67
2022/03/26 03:59:55;;;;;;;6.37;3.77;;;;;;;;;;21055559;28;20208;-67
2022/03/26 04:09:57;;;;;;;7.30;3.57;;;;;;;;;;20980478;28;20216;-67
2022/03/26 04:20:00;;;;;;;5.10;2.90;;;10.10;99.90;;;;;;20970220;28;20217;-66
2022/03/26 04:30:02;;;;;;;6.57;3.33;;;10.10;99.90;;;;;;20952729;28;20217;-67
2022/03/26 04:40:05;;;;;;;5.50;2.80;;;10.10;99.90;;;;;;20953526;28;20213;-67
2022/03/26 04:50:08;;;;;;;6.80;3.50;;;9.90;99.90;;;;;;20952468;28;20229;-66
2022/03/26 05:00:11;;;;;;;6.67;3.60;;;;;;;;;;20991634;22;20226;-73
2022/03/26 05:10:22;;;;;;;6.43;3.40;;;9.90;99.90;;;;;;20982273;28;20271;-74
2022/03/26 05:20:24;;;;;;;6.53;3.37;;;;;;;;;;20978956;28;20213;-72
2022/03/26 05:30:26;;;;;;;6.23;3.27;;;;;;;;;;20981568;28;20531;-73
2022/03/26 05:40:27;;;;;;;7.50;3.50;;;;;;;;;;20974919;28;20217;-74
2022/03/26 05:50:29;;;;;;;6.73;3.13;;;9.50;99.90;;;;;;20988338;28;20290;-74
2022/03/26 06:00:34;;;;;;;5.43;3.23;;;;;;;;;;20997162;28;20221;-74
2022/03/26 06:10:36;;;;;;;7.90;3.43;;;;;;;;;;20990678;28;20771;-73
2022/03/26 06:20:38;;;;;;;5.07;2.30;;;;;;;;;;20969107;28;20439;-74
2022/03/26 06:30:39;;;;;;;6.80;3.73;;;;;;;;;;20993124;28;20703;-73
2022/03/26 06:40:41;;;;;;;8.53;4.37;;;;;;;;;;20957942;28;20733;-73
2022/03/26 06:50:43;;;;;;;5.30;3.03;;;;;;;;;;20992486;28;20209;-74
2022/03/26 07:00:45;;;;;;;4.63;2.97;;;;;;;;;;20984934;28;20225;-74
2022/03/26 07:10:46;;;;;;;8.83;3.83;;;;;;;;;;20969382;28;20221;-73
2022/03/26 07:20:48;;;;;;;7.17;4.03;;;;;;;;;;20987093;28;20684;-73
2022/03/26 07:30:50;;;;;;;6.70;3.50;;;;;;;;;;20977846;28;20240;-74
2022/03/26 07:40:53;;;;;;;6.67;3.30;;;;;;;;;;20979875;28;20632;-73
2022/03/26 07:50:54;;;;;;;6.00;3.80;;;;;;;;;;20985879;28;20589;-74
2022/03/26 08:00:56;;;;;;;6.87;3.80;;;;;;;;;;20986925;28;20703;-72
2022/03/26 08:10:58;;;;;;;8.07;4.60;;;;;;;;;;20969942;28;20213;-73
2022/03/26 08:21:00;;;;;;;5.93;3.77;;;;;;;;;;20985825;28;20209;-73
2022/03/26 08:31:02;;;;;;;6.80;3.87;;;;;;;;;;20988913;28;20555;-73
2022/03/26 08:41:04;;;;;;;6.73;3.57;;;;;;;;;;20991523;28;20216;-73
2022/03/26 08:51:06;;;;;;;7.53;3.83;;;;;;;;;;21000784;28;20205;-72
2022/03/26 09:01:08;;;;;;;6.97;4.07;;;;;;;;;;20969684;28;20271;-73
2022/03/26 09:11:09;;;;;;;6.83;3.80;;;;;;;;;;20972215;28;20262;-74
2022/03/26 09:21:11;;;;;;;7.63;4.40;;;;;;;;;;20989397;28;20696;-73
2022/03/26 09:31:13;;;;;;;8.10;4.63;;;;;;;;;;20967869;28;20248;-72
2022/03/26 09:41:16;;;;;;;6.83;3.93;;;15.60;97.20;;;;;;20979540;28;20262;-72
2022/03/26 09:51:21;;;;;;;8.73;4.27;;;;;;;;;;20980752;28;20587;-72
2022/03/26 10:01:25;;;;;;;8.07;4.60;;;;;;;;;;20987000;28;20653;-72
2022/03/26 10:11:32;;;;;;;10.87;4.83;;;16.20;99.90;;;;;;20982969;28;20244;-72
2022/03/26 10:21:34;;;;;;;9.93;5.20;;;;;;;;;;20986675;28;20734;-73
2022/03/26 10:41:57;;;;;;;9.70;5.37;;;16.90;95.20;;;;;;20993499;28;20243;-72
2022/03/26 10:52:11;;;;;;;11.98;7.03;;;17.20;99.40;;;;;;20980903;28;20445;-72
2022/03/26 11:02:13;;;;;;;9.17;5.23;;;;;;;;;;20957829;28;20213;-71
2022/03/26 11:12:17;;;;;;;8.63;5.57;;;18.00;97.70;;;;;;20981655;28;20220;-73
2022/03/26 11:22:25;;;;;;;9.57;5.97;;;;;;;;;;20966058;28;20213;-72
2022/03/26 11:32:31;;;;;;;11.50;5.90;;;18.60;97.10;;;;;;20969337;28;20286;-72
2022/03/26 11:42:33;;;;;;;9.10;5.57;;;;;;;;;;20953262;28;20704;-70
2022/03/26 11:52:35;;;;;;;8.67;5.33;;;;;;;;;;20966831;28;20217;-73
2022/03/26 12:02:36;;;;;;;7.57;5.23;;;;;;;;;;20976129;28;20692;-73
2022/03/26 12:12:52;;;;;;;9.90;5.40;;;;;;;;;;20987334;28;20209;-74
2022/03/26 12:23:15;;;;;;;7.10;4.53;;;19.80;92.80;;;;;;20968034;28;20228;-71
2022/03/26 12:33:17;;;;;;;8.63;4.33;;;19.50;86.40;;;;;;20985839;28;20356;-70
2022/03/26 12:43:19;;;;;;;7.37;4.63;;;;;;;;;;20985522;28;20247;-71
2022/03/26 12:53:21;;;;;;;8.47;4.20;;;19.70;79.30;;;;;;20968252;28;20259;-74
2022/03/26 13:03:27;;;;;;;6.63;3.73;;;;;;;;;;20936258;28;20273;-73
2022/03/26 13:13:29;;;;;;;9.70;4.37;;;;;;;;;;20919200;28;20254;-73
2022/03/26 13:23:31;;;;;;;5.03;3.27;;;;;;;;;;21006625;28;20205;-73
2022/03/26 13:33:32;;;;;;;5.70;3.73;;;;;;;;;;20996430;28;20213;-74
2022/03/26 13:43:34;;;;;;;6.33;3.47;;;;;;;;;;20977023;28;20266;-73
2022/03/26 13:53:39;;;;;;;6.40;3.63;;;;;;;;;;20983529;28;20229;-74
2022/03/26 14:03:41;;;;;;;4.77;3.17;;;;;;;;;;20983294;28;20561;-74
2022/03/26 14:13:43;;;;;;;4.70;2.73;;;20.50;73.70;;;;;;20982456;28;20221;-74
2022/03/26 14:23:45;;;;;;;5.33;2.73;;;;;;;;;;20983977;28;20201;-73
2022/03/26 14:33:47;;;;;;;4.00;2.40;;;;;;;;;;20972828;28;20671;-74
2022/03/26 14:43:49;;;;;;;3.87;2.10;;;;;;;;;;20966088;28;20205;-74
2022/03/26 14:53:51;;;;;;;4.03;2.13;;;;;;;;;;20981985;28;20267;-74
2022/03/26 15:03:55;;;;;;;4.27;2.00;;;;;;;;;;20984043;28;20220;-73
2022/03/26 15:13:57;;;;;;;4.40;2.57;;;;;;;;;;20984807;28;20624;-73
2022/03/26 15:23:58;;;;;;;5.47;2.70;;;;;;;;;;20940255;28;20271;-72
2022/03/26 15:34:00;;;;;;;4.13;2.50;;;;;;;;;;20967043;28;20251;-73
2022/03/26 15:44:04;;;;;;;4.20;2.30;;;19.80;76.70;;;;;;20966257;28;20213;-73
2022/03/26 15:54:05;;;;;;;3.20;1.90;;;;;;;;;;20982800;28;20208;-73
2022/03/26 16:04:07;;;;;;;4.77;2.40;;;;;;;;;;20984260;28;20271;-73
2022/03/26 16:14:10;;;;;;;4.67;2.13;;;;;;;;;;20977549;28;20240;-73
2022/03/26 16:24:12;;;;;;;4.40;2.10;;;;;;;;;;20967643;28;20235;-73
2022/03/26 16:34:14;;;;;;;3.00;1.80;;;;;;;;;;20981914;28;20229;-74
2022/03/26 16:44:17;;;;;;;5.17;1.70;;;;;;;;;;20960076;28;20217;-74
2022/03/26 16:54:19;;;;;;;6.30;2.60;;;;;;;;;;20988396;28;20209;-74
2022/03/26 17:04:21;;;;;;;3.77;2.60;;;;;;;;;;20999826;28;20224;-74
2022/03/26 17:14:23;;;;;;;4.67;2.30;;;;;;;;;;20989790;28;20229;-74
2022/03/26 17:24:25;;;;;;;11.27;2.47;;;;;;;;;;20973743;28;20205;-72
2022/03/26 17:34:26;;;;;;;3.83;1.97;;;;;;;;;;20966380;28;20705;-75
2022/03/26 17:44:28;;;;;;;3.33;1.60;;;;;;;;;;20989857;28;20209;-75
2022/03/26 17:54:30;;;;;;;9.53;2.03;;;;;;;;;;20999733;22;20225;-65
2022/03/26 18:04:32;;;;;;;3.13;1.70;;;;;;;;;;20936447;28;20207;-65
2022/03/26 18:14:33;;;;;;;4.20;2.00;;;17.10;87.80;;;;;;20886924;28;20271;-65
2022/03/26 18:24:37;;;;;;;6.00;2.33;;;;;;;;;;20893912;28;20578;-65
2022/03/26 18:34:39;;;;;;;7.23;3.13;;;;;;;;;;20878453;28;20222;-65
2022/03/26 18:44:41;;;;;;;7.10;2.30;;;;;;;;;;20932276;28;20221;-67
2022/03/26 18:54:43;;;;;;;6.37;2.33;;;;;;;;;;20956263;28;20572;-67
2022/03/26 19:04:45;;;;;;;3.87;2.43;;;16.70;88.50;;;;;;20955294;28;20254;-66
2022/03/26 19:14:47;;;;;;;8.93;3.50;;;;;;;;;;20965764;28;20271;-66
2022/03/26 19:24:49;;;;;;;5.93;2.57;;;;;;;;;;20967589;28;20525;-66
2022/03/26 19:34:51;;;;;;;3.77;2.20;;;;;;;;;;20965657;28;20723;-66
2022/03/26 19:44:53;;;;;;;8.47;2.87;;;;;;;;;;20948063;28;20208;-67
2022/03/26 19:54:56;;;;;;;7.60;3.07;;;;;;;;;;20947470;28;20217;-67
2022/03/26 20:04:59;;;;;;;9.73;3.27;;;;;;;;;;20980787;28;20571;-65
2022/03/26 20:15:01;;;;;;;6.90;3.10;;;;;;;;;;20987198;28;20274;-65
2022/03/26 20:25:03;;;;;;;5.53;2.70;;;15.60;95.00;;;;;;20962351;28;20268;-65
2022/03/26 20:35:06;;;;;;;7.10;3.00;;;15.50;99.90;;;;;;20957555;28;20225;-65
2022/03/26 20:45:09;;;;;;;7.10;2.80;;;;;;;;;;20964268;28;20668;-65
2022/03/26 20:55:11;;;;;;;4.73;3.10;;;;;;;;;;20962410;28;20274;-65
2022/03/26 21:05:13;;;;;;;5.93;3.67;;;;;;;;;;20962074;28;20511;-65
2022/03/26 21:15:15;;;;;;;6.13;3.33;;;;;;;;;;20977752;28;20221;-65
2022/03/26 21:35:38;;;;;;;5.67;3.33;;;;;;;;;;20994394;28;20217;-65
2022/03/26 21:45:40;;;;;;;4.83;2.93;;;;;;;;;;20950560;28;20209;-65
2022/03/26 21:55:42;;;;;;;4.47;2.93;;;;;;;;;;20911564;28;20226;-65
2022/03/26 22:05:45;;;;;;;3.60;2.10;;;;;;;;;;20912618;28;20240;-65
2022/03/26 22:15:47;;;;;;;5.27;2.50;;;;;;;;;;20968197;28;20232;-65
2022/03/26 22:25:49;;;;;;;3.70;2.17;;;;;;;;;;20948996;28;20247;-65
2022/03/26 22:35:52;;;;;;;5.37;2.23;;;;;;;;;;20961913;28;20640;-66
2022/03/26 22:45:57;;;;;;;3.23;2.20;;;;;;;;;;20961118;28;20239;-65
2022/03/26 22:55:59;;;;;;;4.17;2.00;;;;;;;;;;20959866;28;20209;-65
2022/03/26 23:06:00;;;;;;;2.97;1.83;;;;;;;;;;20959825;28;20205;-65
2022/03/26 23:16:02;;;;;;;5.57;2.20;;;;;;;;;;20963432;28;20224;-65
2022/03/26 23:26:05;;;;;;;3.90;1.93;;;;;;;;;;20942335;28;20231;-65
2022/03/26 23:36:07;;;;;;;3.90;2.07;;;;;;;;;;20957754;28;20251;-65
2022/03/26 23:46:09;;;;;;;3.53;2.00;;;;;;;;;;20963462;28;20230;-66
2022/03/26 23:56:11;;;;;;;3.00;1.77;;;;;;;;;;20971737;28;20225;-65
